Airport View

Enter AWOS ICAO identifier for current METAR.

ex. KFNL

KPCZ 080430Z AUTO 00000KT 10SM CLR 21/20 A2997 RMK AO2 T02060197

8 Jul 2020 04:33

Frequency: 118.625

Phone: 920-867-2407

Other Area AWOS: KCLI - KY50 - KATW - KSTE

TAF KATW 072340Z 0800/0824 23007KT P6SM VCTS BKN045 OVC090CB FM080200 VRB03KT P6SM SCT070 BKN110 TEMPO 0809/0811 3SM BR FM081500 18005KT P6SM SCT035 FM081800 18007KT P6SM BKN040